sensor_id;sensor_type;location;lat;lon;timestamp;pressure;altitude;pressure_sealevel;temperature;humidity
48942;BME280;35340;52.378;4.648;2023-02-18T00:00:59;102205.28;;;17.47;52.35
48942;BME280;35340;52.378;4.648;2023-02-18T00:03:26;102201.78;;;17.48;52.21
48942;BME280;35340;52.378;4.648;2023-02-18T00:05:52;102200.94;;;17.47;52.31
48942;BME280;35340;52.378;4.648;2023-02-18T00:08:18;102194.00;;;17.48;52.51
48942;BME280;35340;52.378;4.648;2023-02-18T00:10:44;102206.16;;;17.49;52.56
48942;BME280;35340;52.378;4.648;2023-02-18T00:13:09;102205.28;;;17.47;52.45
48942;BME280;35340;52.378;4.648;2023-02-18T00:15:35;102198.31;;;17.47;52.35
48942;BME280;35340;52.378;4.648;2023-02-18T00:18:01;102197.47;;;17.47;52.27
48942;BME280;35340;52.378;4.648;2023-02-18T00:20:26;102194.00;;;17.46;52.07
48942;BME280;35340;52.378;4.648;2023-02-18T00:22:52;102193.09;;;17.46;52.44
48942;BME280;35340;52.378;4.648;2023-02-18T00:25:19;102198.28;;;17.46;52.33
48942;BME280;35340;52.378;4.648;2023-02-18T00:27:44;102185.28;;;17.46;52.43
48942;BME280;35340;52.378;4.648;2023-02-18T00:30:10;102172.28;;;17.46;52.25
48942;BME280;35340;52.378;4.648;2023-02-18T00:32:35;102174.00;;;17.45;52.31
48942;BME280;35340;52.378;4.648;2023-02-18T00:35:01;102184.41;;;17.45;52.17
48942;BME280;35340;52.378;4.648;2023-02-18T00:37:27;102183.59;;;17.46;52.15
48942;BME280;35340;52.378;4.648;2023-02-18T00:39:52;102168.81;;;17.45;52.12
48942;BME280;35340;52.378;4.648;2023-02-18T00:42:18;102174.00;;;17.45;52.36
48942;BME280;35340;52.378;4.648;2023-02-18T00:44:43;102176.63;;;17.45;52.38
48942;BME280;35340;52.378;4.648;2023-02-18T00:47:09;102171.41;;;17.45;52.42
48942;BME280;35340;52.378;4.648;2023-02-18T00:49:35;102174.00;;;17.45;52.12
48942;BME280;35340;52.378;4.648;2023-02-18T00:52:00;102171.41;;;17.45;52.22
48942;BME280;35340;52.378;4.648;2023-02-18T00:54:26;102180.09;;;17.44;52.22
48942;BME280;35340;52.378;4.648;2023-02-18T00:56:51;102179.19;;;17.44;52.19
48942;BME280;35340;52.378;4.648;2023-02-18T00:59:16;102173.16;;;17.45;52.30
48942;BME280;35340;52.378;4.648;2023-02-18T01:01:42;102172.28;;;17.44;52.15
48942;BME280;35340;52.378;4.648;2023-02-18T01:04:08;102156.66;;;17.44;52.38
48942;BME280;35340;52.378;4.648;2023-02-18T01:06:33;102154.06;;;17.44;52.24
48942;BME280;35340;52.378;4.648;2023-02-18T01:08:59;102145.34;;;17.44;52.33
48942;BME280;35340;52.378;4.648;2023-02-18T01:11:24;102129.75;;;17.44;52.09
48942;BME280;35340;52.378;4.648;2023-02-18T01:13:49;102130.63;;;17.43;52.17
48942;BME280;35340;52.378;4.648;2023-02-18T01:16:16;102136.66;;;17.42;52.37
48942;BME280;35340;52.378;4.648;2023-02-18T01:18:42;102137.56;;;17.42;52.23
48942;BME280;35340;52.378;4.648;2023-02-18T01:21:08;102137.56;;;17.42;52.17
48942;BME280;35340;52.378;4.648;2023-02-18T01:23:34;102129.75;;;17.42;52.40
48942;BME280;35340;52.378;4.648;2023-02-18T01:26:00;102137.56;;;17.42;52.47
48942;BME280;35340;52.378;4.648;2023-02-18T01:28:25;102140.16;;;17.42;52.22
48942;BME280;35340;52.378;4.648;2023-02-18T01:30:52;102138.41;;;17.43;52.15
48942;BME280;35340;52.378;4.648;2023-02-18T01:33:18;102132.34;;;17.42;52.14
48942;BME280;35340;52.378;4.648;2023-02-18T01:35:44;102133.19;;;17.40;52.08
48942;BME280;35340;52.378;4.648;2023-02-18T01:38:09;102121.91;;;17.41;52.41
48942;BME280;35340;52.378;4.648;2023-02-18T01:40:36;102121.91;;;17.41;52.25
48942;BME280;35340;52.378;4.648;2023-02-18T01:43:02;102112.38;;;17.41;52.30
48942;BME280;35340;52.378;4.648;2023-02-18T01:48:22;102101.09;;;17.41;52.21
48942;BME280;35340;52.378;4.648;2023-02-18T01:50:50;102100.22;;;17.40;52.25
48942;BME280;35340;52.378;4.648;2023-02-18T01:53:21;102095.03;;;17.40;52.11
48942;BME280;35340;52.378;4.648;2023-02-18T01:55:47;102091.56;;;17.40;52.31
48942;BME280;35340;52.378;4.648;2023-02-18T01:58:14;102084.59;;;17.39;52.46
48942;BME280;35340;52.378;4.648;2023-02-18T02:00:40;102082.00;;;17.40;52.15
48942;BME280;35340;52.378;4.648;2023-02-18T02:03:05;102068.13;;;17.40;51.96
48942;BME280;35340;52.378;4.648;2023-02-18T02:05:32;102062.94;;;17.40;52.34
48942;BME280;35340;52.378;4.648;2023-02-18T02:07:58;102053.38;;;17.39;52.23
48942;BME280;35340;52.378;4.648;2023-02-18T02:10:33;102043.81;;;17.39;52.15
48942;BME280;35340;52.378;4.648;2023-02-18T02:15:51;102036.88;;;17.38;52.24
48942;BME280;35340;52.378;4.648;2023-02-18T02:37:20;101995.25;;;17.38;52.19
48942;BME280;35340;52.378;4.648;2023-02-18T02:40:17;101985.69;;;17.37;52.25
48942;BME280;35340;52.378;4.648;2023-02-18T02:43:30;101977.88;;;17.37;52.35
48942;BME280;35340;52.378;4.648;2023-02-18T02:53:41;101969.22;;;17.37;52.42
48942;BME280;35340;52.378;4.648;2023-02-18T02:56:25;101973.56;;;17.36;52.36
48942;BME280;35340;52.378;4.648;2023-02-18T02:59:00;101965.75;;;17.36;52.31
48942;BME280;35340;52.378;4.648;2023-02-18T03:04:30;101955.34;;;17.36;52.21
48942;BME280;35340;52.378;4.648;2023-02-18T03:07:07;101940.56;;;17.35;52.20
48942;BME280;35340;52.378;4.648;2023-02-18T03:17:56;101928.44;;;17.34;52.42
48942;BME280;35340;52.378;4.648;2023-02-18T03:20:30;101917.16;;;17.35;52.42
48942;BME280;35340;52.378;4.648;2023-02-18T03:23:01;101903.25;;;17.33;52.33
48942;BME280;35340;52.378;4.648;2023-02-18T03:25:30;101906.75;;;17.34;52.44
48942;BME280;35340;52.378;4.648;2023-02-18T03:28:00;101902.41;;;17.34;52.40
48942;BME280;35340;52.378;4.648;2023-02-18T03:30:38;101909.34;;;17.34;52.44
48942;BME280;35340;52.378;4.648;2023-02-18T03:33:06;101898.94;;;17.34;52.29
48942;BME280;35340;52.378;4.648;2023-02-18T03:35:35;101882.44;;;17.33;52.39
48942;BME280;35340;52.378;4.648;2023-02-18T03:38:19;101884.19;;;17.34;52.44
48942;BME280;35340;52.378;4.648;2023-02-18T03:40:46;101877.25;;;17.33;52.42
48942;BME280;35340;52.378;4.648;2023-02-18T03:43:11;101878.13;;;17.34;52.33
48942;BME280;35340;52.378;4.648;2023-02-18T03:45:37;101872.94;;;17.34;52.36
48942;BME280;35340;52.378;4.648;2023-02-18T03:48:03;101864.22;;;17.33;52.34
48942;BME280;35340;52.378;4.648;2023-02-18T03:50:28;101867.72;;;17.34;52.22
48942;BME280;35340;52.378;4.648;2023-02-18T03:52:54;101846.91;;;17.32;52.29
48942;BME280;35340;52.378;4.648;2023-02-18T03:55:19;101869.44;;;17.33;52.46
48942;BME280;35340;52.378;4.648;2023-02-18T03:57:45;101859.03;;;17.32;52.48
48942;BME280;35340;52.378;4.648;2023-02-18T04:00:11;101841.69;;;17.32;52.42
48942;BME280;35340;52.378;4.648;2023-02-18T04:02:36;101836.50;;;17.32;52.36
48942;BME280;35340;52.378;4.648;2023-02-18T04:05:02;101851.22;;;17.33;52.16
48942;BME280;35340;52.378;4.648;2023-02-18T04:07:27;101854.69;;;17.32;52.36
48942;BME280;35340;52.378;4.648;2023-02-18T04:09:53;101841.69;;;17.32;52.36
48942;BME280;35340;52.378;4.648;2023-02-18T04:12:18;101835.63;;;17.32;52.32
48942;BME280;35340;52.378;4.648;2023-02-18T04:14:44;101835.59;;;17.30;52.49
48942;BME280;35340;52.378;4.648;2023-02-18T04:17:09;101826.94;;;17.31;52.34
48942;BME280;35340;52.378;4.648;2023-02-18T04:22:57;101830.41;;;17.30;52.33
48942;BME280;35340;52.378;4.648;2023-02-18T04:25:22;101819.13;;;17.30;52.44
48942;BME280;35340;52.378;4.648;2023-02-18T04:27:48;101812.16;;;17.28;52.33
48942;BME280;35340;52.378;4.648;2023-02-18T04:30:14;101811.31;;;17.30;52.36
48942;BME280;35340;52.378;4.648;2023-02-18T04:32:41;101807.84;;;17.29;52.16
48942;BME280;35340;52.378;4.648;2023-02-18T04:35:07;101802.66;;;17.29;52.34
48942;BME280;35340;52.378;4.648;2023-02-18T04:37:33;101802.66;;;17.29;52.28
48942;BME280;35340;52.378;4.648;2023-02-18T04:39:58;101796.56;;;17.28;52.34
48942;BME280;35340;52.378;4.648;2023-02-18T04:42:24;101806.09;;;17.28;52.42
48942;BME280;35340;52.378;4.648;2023-02-18T04:44:49;101800.91;;;17.30;52.16
48942;BME280;35340;52.378;4.648;2023-02-18T04:47:17;101802.63;;;17.27;52.36
48942;BME280;35340;52.378;4.648;2023-02-18T04:49:42;101794.84;;;17.29;52.46
48942;BME280;35340;52.378;4.648;2023-02-18T04:52:08;101794.84;;;17.27;52.67
48942;BME280;35340;52.378;4.648;2023-02-18T04:54:36;101806.97;;;17.28;52.30
48942;BME280;35340;52.378;4.648;2023-02-18T04:57:02;101789.63;;;17.27;52.25
48942;BME280;35340;52.378;4.648;2023-02-18T04:59:27;101778.38;;;17.27;52.52
48942;BME280;35340;52.378;4.648;2023-02-18T05:01:53;101780.97;;;17.27;52.37
48942;BME280;35340;52.378;4.648;2023-02-18T05:04:18;101775.75;;;17.27;52.35
48942;BME280;35340;52.378;4.648;2023-02-18T05:06:44;101778.38;;;17.27;52.49
48942;BME280;35340;52.378;4.648;2023-02-18T05:09:10;101767.97;;;17.27;52.29
48942;BME280;35340;52.378;4.648;2023-02-18T05:11:36;101770.56;;;17.27;52.45
48942;BME280;35340;52.378;4.648;2023-02-18T05:14:02;101767.06;;;17.28;52.25
48942;BME280;35340;52.378;4.648;2023-02-18T05:16:27;101767.06;;;17.28;52.44
48942;BME280;35340;52.378;4.648;2023-02-18T05:18:53;101770.53;;;17.28;52.47
48942;BME280;35340;52.378;4.648;2023-02-18T05:21:18;101768.84;;;17.29;52.57
48942;BME280;35340;52.378;4.648;2023-02-18T05:23:43;101761.03;;;17.29;52.64
48942;BME280;35340;52.378;4.648;2023-02-18T05:26:09;101767.09;;;17.30;52.46
48942;BME280;35340;52.378;4.648;2023-02-18T05:28:34;101774.03;;;17.29;52.56
48942;BME280;35340;52.378;4.648;2023-02-18T05:31:00;101768.81;;;17.27;52.57
48942;BME280;35340;52.378;4.648;2023-02-18T05:33:25;101776.66;;;17.29;52.59
48942;BME280;35340;52.378;4.648;2023-02-18T05:35:51;101775.75;;;17.30;52.64
48942;BME280;35340;52.378;4.648;2023-02-18T05:38:16;101763.63;;;17.29;52.78
48942;BME280;35340;52.378;4.648;2023-02-18T05:40:42;101761.03;;;17.29;52.46
48942;BME280;35340;52.378;4.648;2023-02-18T05:43:10;101761.03;;;17.31;52.63
48942;BME280;35340;52.378;4.648;2023-02-18T05:45:36;101754.09;;;17.30;52.75
48942;BME280;35340;52.378;4.648;2023-02-18T05:48:01;101764.50;;;17.31;52.71
48942;BME280;35340;52.378;4.648;2023-02-18T05:50:30;101764.50;;;17.31;52.70
48942;BME280;35340;52.378;4.648;2023-02-18T05:53:05;101759.31;;;17.31;52.83
48942;BME280;35340;52.378;4.648;2023-02-18T05:55:42;101761.03;;;17.31;52.82
48942;BME280;35340;52.378;4.648;2023-02-18T05:58:08;101748.91;;;17.31;52.71
48942;BME280;35340;52.378;4.648;2023-02-18T06:00:33;101749.78;;;17.32;52.92
48942;BME280;35340;52.378;4.648;2023-02-18T06:03:02;101761.03;;;17.32;52.77
48942;BME280;35340;52.378;4.648;2023-02-18T06:05:33;101753.22;;;17.32;52.95
48942;BME280;35340;52.378;4.648;2023-02-18T06:08:02;101765.38;;;17.33;52.99
48942;BME280;35340;52.378;4.648;2023-02-18T06:10:32;101748.03;;;17.32;52.80
48942;BME280;35340;52.378;4.648;2023-02-18T06:13:00;101755.84;;;17.32;52.96
48942;BME280;35340;52.378;4.648;2023-02-18T06:15:34;101748.91;;;17.33;52.95
48942;BME280;35340;52.378;4.648;2023-02-18T06:18:00;101741.94;;;17.33;52.80
48942;BME280;35340;52.378;4.648;2023-02-18T06:20:25;101736.75;;;17.32;52.79
48942;BME280;35340;52.378;4.648;2023-02-18T06:23:03;101734.16;;;17.33;52.91
48942;BME280;35340;52.378;4.648;2023-02-18T06:25:28;101733.28;;;17.33;52.97
48942;BME280;35340;52.378;4.648;2023-02-18T06:27:54;101744.56;;;17.33;52.88
48942;BME280;35340;52.378;4.648;2023-02-18T06:30:20;101752.38;;;17.35;52.86
48942;BME280;35340;52.378;4.648;2023-02-18T06:32:45;101739.34;;;17.33;52.79
48942;BME280;35340;52.378;4.648;2023-02-18T06:35:11;101745.44;;;17.34;52.78
48942;BME280;35340;52.378;4.648;2023-02-18T06:37:45;101734.16;;;17.33;52.88
48942;BME280;35340;52.378;4.648;2023-02-18T06:40:15;101750.66;;;17.34;53.12
48942;BME280;35340;52.378;4.648;2023-02-18T06:42:46;101733.31;;;17.34;52.88
48942;BME280;35340;52.378;4.648;2023-02-18T06:45:18;101737.63;;;17.35;52.96
48942;BME280;35340;52.378;4.648;2023-02-18T06:47:44;101724.63;;;17.34;52.90
48942;BME280;35340;52.378;4.648;2023-02-18T06:50:10;101732.44;;;17.35;52.77
48942;BME280;35340;52.378;4.648;2023-02-18T06:52:35;101728.97;;;17.35;52.92
48942;BME280;35340;52.378;4.648;2023-02-18T06:55:12;101726.34;;;17.35;53.00
48942;BME280;35340;52.378;4.648;2023-02-18T06:57:38;101736.75;;;17.35;53.15
48942;BME280;35340;52.378;4.648;2023-02-18T07:00:07;101736.75;;;17.35;53.08
48942;BME280;35340;52.378;4.648;2023-02-18T07:02:32;101728.09;;;17.34;52.92
48942;BME280;35340;52.378;4.648;2023-02-18T07:04:58;101728.13;;;17.36;53.16
48942;BME280;35340;52.378;4.648;2023-02-18T07:07:23;101706.41;;;17.35;52.98
48942;BME280;35340;52.378;4.648;2023-02-18T07:09:48;101706.41;;;17.35;53.08
48942;BME280;35340;52.378;4.648;2023-02-18T07:12:14;101713.38;;;17.36;52.93
48942;BME280;35340;52.378;4.648;2023-02-18T07:14:39;101699.50;;;17.36;53.15
48942;BME280;35340;52.378;4.648;2023-02-18T07:17:05;101710.78;;;17.36;52.83
48942;BME280;35340;52.378;4.648;2023-02-18T07:19:30;101704.69;;;17.37;53.01
48942;BME280;35340;52.378;4.648;2023-02-18T07:21:56;101725.50;;;17.37;52.93
48942;BME280;35340;52.378;4.648;2023-02-18T07:24:22;101711.63;;;17.37;53.15
48942;BME280;35340;52.378;4.648;2023-02-18T07:26:48;101738.50;;;17.37;53.08
48942;BME280;35340;52.378;4.648;2023-02-18T07:29:13;101732.47;;;17.38;52.98
48942;BME280;35340;52.378;4.648;2023-02-18T07:31:39;101729.00;;;17.38;53.10
48942;BME280;35340;52.378;4.648;2023-02-18T07:34:04;101738.53;;;17.39;53.05
48942;BME280;35340;52.378;4.648;2023-02-18T07:36:30;101729.84;;;17.38;52.95
48942;BME280;35340;52.378;4.648;2023-02-18T07:38:55;101742.00;;;17.39;53.13
48942;BME280;35340;52.378;4.648;2023-02-18T07:41:22;101736.78;;;17.39;53.18
48942;BME280;35340;52.378;4.648;2023-02-18T07:43:48;101737.69;;;17.40;53.24
48942;BME280;35340;52.378;4.648;2023-02-18T07:46:14;101722.06;;;17.40;53.24
48942;BME280;35340;52.378;4.648;2023-02-18T07:48:40;101726.47;;;17.52;53.34
48942;BME280;35340;52.378;4.648;2023-02-18T07:51:07;101731.72;;;17.62;53.21
48942;BME280;35340;52.378;4.648;2023-02-18T07:53:34;101728.22;;;17.63;53.15
48942;BME280;35340;52.378;4.648;2023-02-18T07:56:00;101720.44;;;17.65;52.99
48942;BME280;35340;52.378;4.648;2023-02-18T07:58:28;101730.88;;;17.66;52.87
48942;BME280;35340;52.378;4.648;2023-02-18T08:00:54;101731.75;;;17.76;52.90
48942;BME280;35340;52.378;4.648;2023-02-18T08:03:26;101738.72;;;17.76;52.99
48942;BME280;35340;52.378;4.648;2023-02-18T08:05:53;101731.78;;;17.78;53.34
48942;BME280;35340;52.378;4.648;2023-02-18T08:08:21;101743.13;;;17.86;53.42
48942;BME280;35340;52.378;4.648;2023-02-18T08:10:48;101733.56;;;17.85;53.31
48942;BME280;35340;52.378;4.648;2023-02-18T08:13:14;101745.63;;;17.77;53.46
48942;BME280;35340;52.378;4.648;2023-02-18T08:15:40;101736.94;;;17.70;53.54
48942;BME280;35340;52.378;4.648;2023-02-18T08:18:07;101731.72;;;17.67;53.54
48942;BME280;35340;52.378;4.648;2023-02-18T08:20:36;101736.09;;;17.71;53.31
48942;BME280;35340;52.378;4.648;2023-02-18T08:23:03;101736.09;;;17.71;53.06
48942;BME280;35340;52.378;4.648;2023-02-18T08:25:29;101749.97;;;17.72;53.10
48942;BME280;35340;52.378;4.648;2023-02-18T08:27:54;101757.75;;;17.70;53.20
48942;BME280;35340;52.378;4.648;2023-02-18T08:30:19;101757.78;;;17.68;53.29
48942;BME280;35340;52.378;4.648;2023-02-18T08:32:45;101760.38;;;17.68;53.44
48942;BME280;35340;52.378;4.648;2023-02-18T08:35:11;101762.97;;;17.70;53.01
48942;BME280;35340;52.378;4.648;2023-02-18T08:37:36;101756.91;;;17.69;53.09
48942;BME280;35340;52.378;4.648;2023-02-18T08:40:02;101756.03;;;17.72;53.10
48942;BME280;35340;52.378;4.648;2023-02-18T08:42:28;101763.00;;;17.76;53.24
48942;BME280;35340;52.378;4.648;2023-02-18T08:44:53;101768.22;;;17.78;52.81
48942;BME280;35340;52.378;4.648;2023-02-18T08:47:19;101754.34;;;17.77;53.05
48942;BME280;35340;52.378;4.648;2023-02-18T08:49:44;101749.19;;;17.85;52.81
48942;BME280;35340;52.378;4.648;2023-02-18T08:52:09;101757.81;;;17.79;54.90
48942;BME280;35340;52.378;4.648;2023-02-18T08:54:35;101763.75;;;17.52;55.41
48942;BME280;35340;52.378;4.648;2023-02-18T08:57:00;101770.63;;;17.39;55.84
48942;BME280;35340;52.378;4.648;2023-02-18T08:59:26;101771.44;;;17.31;56.50
48942;BME280;35340;52.378;4.648;2023-02-18T09:01:53;101766.22;;;17.27;55.76
48942;BME280;35340;52.378;4.648;2023-02-18T09:04:18;101768.81;;;17.27;57.72
48942;BME280;35340;52.378;4.648;2023-02-18T09:06:48;101776.59;;;17.24;56.21
48942;BME280;35340;52.378;4.648;2023-02-18T09:09:15;101771.38;;;17.21;56.62
48942;BME280;35340;52.378;4.648;2023-02-18T09:11:41;101779.19;;;17.24;57.59
48942;BME280;35340;52.378;4.648;2023-02-18T09:14:06;101788.75;;;17.22;57.39
48942;BME280;35340;52.378;4.648;2023-02-18T09:16:32;101794.78;;;17.24;57.23
48942;BME280;35340;52.378;4.648;2023-02-18T09:18:57;101790.47;;;17.23;58.25
48942;BME280;35340;52.378;4.648;2023-02-18T09:21:23;101793.94;;;17.25;57.88
48942;BME280;35340;52.378;4.648;2023-02-18T09:23:49;101789.59;;;17.24;56.90
48942;BME280;35340;52.378;4.648;2023-02-18T09:26:17;101798.28;;;17.28;56.81
48942;BME280;35340;52.378;4.648;2023-02-18T09:28:45;101794.84;;;17.31;56.05
48942;BME280;35340;52.378;4.648;2023-02-18T09:31:15;101806.13;;;17.30;57.73
48942;BME280;35340;52.378;4.648;2023-02-18T09:33:43;101801.81;;;17.32;58.06
48942;BME280;35340;52.378;4.648;2023-02-18T09:36:09;101809.59;;;17.33;57.23
48942;BME280;35340;52.378;4.648;2023-02-18T09:38:35;101813.94;;;17.31;57.79
48942;BME280;35340;52.378;4.648;2023-02-18T09:41:03;101813.06;;;17.32;57.65
48942;BME280;35340;52.378;4.648;2023-02-18T09:43:33;101815.66;;;17.32;57.76
48942;BME280;35340;52.378;4.648;2023-02-18T09:46:01;101820.88;;;17.35;57.53
48942;BME280;35340;52.378;4.648;2023-02-18T09:48:30;101823.53;;;17.38;58.40
48942;BME280;35340;52.378;4.648;2023-02-18T09:50:57;101812.25;;;17.39;56.68
48942;BME280;35340;52.378;4.648;2023-02-18T09:53:24;101819.22;;;17.45;58.39
48942;BME280;35340;52.378;4.648;2023-02-18T09:55:51;101838.34;;;17.50;56.97
48942;BME280;35340;52.378;4.648;2023-02-18T09:58:25;101827.06;;;17.53;56.65
48942;BME280;35340;52.378;4.648;2023-02-18T10:01:14;101838.44;;;17.65;56.36
48942;BME280;35340;52.378;4.648;2023-02-18T10:03:43;101832.38;;;17.69;55.36
48942;BME280;35340;52.378;4.648;2023-02-18T10:06:17;101828.09;;;17.73;56.64
48942;BME280;35340;52.378;4.648;2023-02-18T10:08:46;101833.28;;;17.76;55.34
48942;BME280;35340;52.378;4.648;2023-02-18T10:11:50;101838.41;;;17.58;57.38
48942;BME280;35340;52.378;4.648;2023-02-18T10:14:16;101832.28;;;17.50;57.39
48942;BME280;35340;52.378;4.648;2023-02-18T10:16:43;101828.84;;;17.54;63.45
48942;BME280;35340;52.378;4.648;2023-02-18T10:21:37;101837.91;;;16.93;68.38
48942;BME280;35340;52.378;4.648;2023-02-18T10:24:27;101842.22;;;16.91;68.34
48942;BME280;35340;52.378;4.648;2023-02-18T10:26:55;101849.94;;;16.82;70.63
48942;BME280;35340;52.378;4.648;2023-02-18T10:29:21;101850.81;;;16.84;68.56
48942;BME280;35340;52.378;4.648;2023-02-18T10:34:38;101858.50;;;16.78;68.59
48942;BME280;35340;52.378;4.648;2023-02-18T10:50:48;101870.56;;;16.71;69.00
48942;BME280;35340;52.378;4.648;2023-02-18T10:53:35;101874.91;;;16.72;68.80
48942;BME280;35340;52.378;4.648;2023-02-18T10:56:02;101874.94;;;16.74;68.45
48942;BME280;35340;52.378;4.648;2023-02-18T10:58:32;101873.19;;;16.74;68.10
48942;BME280;35340;52.378;4.648;2023-02-18T11:01:00;101876.72;;;16.78;67.89
48942;BME280;35340;52.378;4.648;2023-02-18T11:03:45;101870.75;;;16.83;68.16
48942;BME280;35340;52.378;4.648;2023-02-18T11:06:30;101867.31;;;16.88;67.56
48942;BME280;35340;52.378;4.648;2023-02-18T11:08:57;101869.94;;;16.91;67.77
48942;BME280;35340;52.378;4.648;2023-02-18T11:11:24;101870.84;;;16.93;66.56
48942;BME280;35340;52.378;4.648;2023-02-18T11:13:55;101876.91;;;16.95;66.74
48942;BME280;35340;52.378;4.648;2023-02-18T11:16:22;101881.28;;;16.99;66.60
48942;BME280;35340;52.378;4.648;2023-02-18T11:18:48;101886.53;;;17.03;64.95
48942;BME280;35340;52.378;4.648;2023-02-18T11:23:52;101874.50;;;17.18;64.18
48942;BME280;35340;52.378;4.648;2023-02-18T11:26:44;101889.28;;;17.19;64.10
48942;BME280;35340;52.378;4.648;2023-02-18T11:29:18;101888.44;;;17.21;63.91
48942;BME280;35340;52.378;4.648;2023-02-18T11:31:46;101871.97;;;17.21;63.19
48942;BME280;35340;52.378;4.648;2023-02-18T11:34:22;101887.56;;;17.24;62.92
48942;BME280;35340;52.378;4.648;2023-02-18T11:36:49;101872.91;;;17.29;61.95
48942;BME280;35340;52.378;4.648;2023-02-18T11:39:25;101878.13;;;17.34;62.15
48942;BME280;35340;52.378;4.648;2023-02-18T11:41:55;101865.16;;;17.38;61.55
48942;BME280;35340;52.378;4.648;2023-02-18T11:44:36;101868.63;;;17.39;60.90
48942;BME280;35340;52.378;4.648;2023-02-18T11:49:40;101872.09;;;17.39;60.03
48942;BME280;35340;52.378;4.648;2023-02-18T11:52:29;101868.66;;;17.43;60.36
48942;BME280;35340;52.378;4.648;2023-02-18T11:55:07;101860.91;;;17.50;60.26
48942;BME280;35340;52.378;4.648;2023-02-18T11:57:34;101864.38;;;17.50;60.00
48942;BME280;35340;52.378;4.648;2023-02-18T12:00:05;101869.53;;;17.45;59.80
48942;BME280;35340;52.378;4.648;2023-02-18T12:02:40;101859.13;;;17.45;59.84
48942;BME280;35340;52.378;4.648;2023-02-18T12:08:22;101872.19;;;17.52;59.66
48942;BME280;35340;52.378;4.648;2023-02-18T12:11:16;101867.06;;;17.62;59.23
48942;BME280;35340;52.378;4.648;2023-02-18T12:13:51;101873.13;;;17.60;59.50
48942;BME280;35340;52.378;4.648;2023-02-18T12:16:28;101862.69;;;17.61;59.06
48942;BME280;35340;52.378;4.648;2023-02-18T12:19:18;101857.50;;;17.63;59.40
48942;BME280;35340;52.378;4.648;2023-02-18T12:22:45;101853.19;;;17.65;58.90
48942;BME280;35340;52.378;4.648;2023-02-18T12:28:10;101857.53;;;17.67;58.95
48942;BME280;35340;52.378;4.648;2023-02-18T12:36:54;101858.38;;;17.63;59.32
48942;BME280;35340;52.378;4.648;2023-02-18T12:39:29;101857.56;;;17.66;59.19
48942;BME280;35340;52.378;4.648;2023-02-18T12:42:34;101865.34;;;17.64;59.07
48942;BME280;35340;52.378;4.648;2023-02-18T12:51:01;101870.56;;;17.69;59.02
48942;BME280;35340;52.378;4.648;2023-02-18T13:07:40;101860.13;;;17.64;58.82
48942;BME280;35340;52.378;4.648;2023-02-18T13:10:39;101855.78;;;17.63;59.11
48942;BME280;35340;52.378;4.648;2023-02-18T13:13:18;101865.38;;;17.69;58.63
48942;BME280;35340;52.378;4.648;2023-02-18T13:15:58;101869.69;;;17.70;58.37
48942;BME280;35340;52.378;4.648;2023-02-18T13:18:33;101866.25;;;17.74;58.03
48942;BME280;35340;52.378;4.648;2023-02-18T13:21:03;101866.34;;;17.82;58.88
48942;BME280;35340;52.378;4.648;2023-02-18T13:23:33;101868.13;;;17.86;58.38
48942;BME280;35340;52.378;4.648;2023-02-18T13:26:01;101864.63;;;17.85;59.19
48942;BME280;35340;52.378;4.648;2023-02-18T13:28:38;101858.56;;;17.86;59.90
48942;BME280;35340;52.378;4.648;2023-02-18T13:33:52;101876.75;;;17.82;60.43
48942;BME280;35340;52.378;4.648;2023-02-18T13:39:21;101868.84;;;17.71;60.07
48942;BME280;35340;52.378;4.648;2023-02-18T13:41:49;101874.91;;;17.70;59.80
48942;BME280;35340;52.378;4.648;2023-02-18T13:49:14;101874.03;;;17.66;60.05
48942;BME280;35340;52.378;4.648;2023-02-18T13:51:47;101875.78;;;17.66;60.07
48942;BME280;35340;52.378;4.648;2023-02-18T13:54:22;101887.91;;;17.65;60.20
48942;BME280;35340;52.378;4.648;2023-02-18T13:56:49;101887.03;;;17.65;59.87
48942;BME280;35340;52.378;4.648;2023-02-18T14:01:51;101887.00;;;17.63;60.13
48942;BME280;35340;52.378;4.648;2023-02-18T14:09:53;101891.34;;;17.60;60.55
48942;BME280;35340;52.378;4.648;2023-02-18T14:12:38;101894.81;;;17.60;60.39
48942;BME280;35340;52.378;4.648;2023-02-18T14:22:50;101886.13;;;17.61;60.31
48942;BME280;35340;52.378;4.648;2023-02-18T14:25:26;101897.41;;;17.60;60.24
48942;BME280;35340;52.378;4.648;2023-02-18T14:28:01;101894.78;;;17.59;60.22
48942;BME280;35340;52.378;4.648;2023-02-18T14:30:39;101901.72;;;17.58;60.48
48942;BME280;35340;52.378;4.648;2023-02-18T14:33:05;101905.19;;;17.56;60.32
48942;BME280;35340;52.378;4.648;2023-02-18T14:40:40;101910.38;;;17.54;60.55
48942;BME280;35340;52.378;4.648;2023-02-18T14:48:49;101906.88;;;17.51;60.49
48942;BME280;35340;52.378;4.648;2023-02-18T14:51:23;101912.94;;;17.50;60.98
48942;BME280;35340;52.378;4.648;2023-02-18T14:53:49;101902.53;;;17.46;60.76
48942;BME280;35340;52.378;4.648;2023-02-18T14:56:19;101913.75;;;17.44;60.46
48942;BME280;35340;52.378;4.648;2023-02-18T14:58:48;101897.25;;;17.42;60.91
48942;BME280;35340;52.378;4.648;2023-02-18T15:03:43;101911.13;;;17.41;60.81
48942;BME280;35340;52.378;4.648;2023-02-18T15:06:28;101910.28;;;17.42;60.94
48942;BME280;35340;52.378;4.648;2023-02-18T15:08:55;101905.06;;;17.42;60.84
48942;BME280;35340;52.378;4.648;2023-02-18T15:11:36;101911.16;;;17.42;61.95
48942;BME280;35340;52.378;4.648;2023-02-18T15:14:08;101905.06;;;17.42;61.18
48942;BME280;35340;52.378;4.648;2023-02-18T15:16:35;101906.81;;;17.41;61.27
48942;BME280;35340;52.378;4.648;2023-02-18T15:19:05;101908.50;;;17.39;60.81
48942;BME280;35340;52.378;4.648;2023-02-18T15:21:36;101900.72;;;17.39;60.92
48942;BME280;35340;52.378;4.648;2023-02-18T15:26:45;101908.53;;;17.38;60.80